createdAt,value
2023-04-23T00:00:15.416Z,1002.81
2023-04-23T00:01:15.432Z,1002.77
2023-04-23T00:02:15.430Z,1002.77
2023-04-23T00:03:15.545Z,1002.74
2023-04-23T00:04:15.598Z,1002.79
2023-04-23T00:05:15.393Z,1002.75
2023-04-23T00:06:15.366Z,1002.77
2023-04-23T00:07:15.364Z,1002.73
2023-04-23T00:08:15.324Z,1002.72
2023-04-23T00:09:15.351Z,1002.74
2023-04-23T00:10:15.321Z,1002.79
2023-04-23T00:11:15.287Z,1002.74
2023-04-23T00:12:15.290Z,1002.75
2023-04-23T00:13:15.317Z,1002.77
2023-04-23T00:14:15.255Z,1002.75
2023-04-23T00:15:15.243Z,1002.78
2023-04-23T00:16:15.280Z,1002.75
2023-04-23T00:17:15.270Z,1002.74
2023-04-23T00:18:15.269Z,1002.75
2023-04-23T00:19:15.233Z,1002.73
2023-04-23T00:20:15.202Z,1002.78
2023-04-23T00:21:15.222Z,1002.74
2023-04-23T00:22:15.219Z,1002.78
2023-04-23T00:23:15.173Z,1002.76
2023-04-23T00:24:15.159Z,1002.76
2023-04-23T00:25:15.161Z,1002.73
2023-04-23T00:26:15.118Z,1002.73
2023-04-23T00:27:15.131Z,1002.73
2023-04-23T00:28:15.108Z,1002.76
2023-04-23T00:29:15.144Z,1002.77
2023-04-23T00:30:15.097Z,1002.74
2023-04-23T00:31:15.132Z,1002.75
2023-04-23T00:32:15.064Z,1002.76
2023-04-23T00:33:15.057Z,1002.73
2023-04-23T00:34:15.029Z,1002.71
2023-04-23T00:35:15.025Z,1002.70
2023-04-23T00:36:15.039Z,1002.66
2023-04-23T00:37:15.005Z,1002.67
2023-04-23T00:38:15.005Z,1002.70
2023-04-23T00:39:14.997Z,1002.68
2023-04-23T00:40:14.969Z,1002.68
2023-04-23T00:41:14.950Z,1002.70
2023-04-23T00:42:14.943Z,1002.67
2023-04-23T00:43:14.970Z,1002.64
2023-04-23T00:44:14.908Z,1002.67
2023-04-23T00:45:14.914Z,1002.65
2023-04-23T00:46:14.912Z,1002.63
2023-04-23T00:47:14.900Z,1002.64
2023-04-23T00:48:14.916Z,1002.60
2023-04-23T00:49:14.871Z,1002.58
2023-04-23T00:50:14.854Z,1002.62
2023-04-23T00:51:14.838Z,1002.64
2023-04-23T00:52:14.849Z,1002.65
2023-04-23T00:53:14.848Z,1002.63
2023-04-23T00:54:14.827Z,1002.64
2023-04-23T00:55:14.797Z,1002.64
2023-04-23T00:56:14.804Z,1002.62
2023-04-23T00:57:14.770Z,1002.66
2023-04-23T00:58:14.765Z,1002.63
2023-04-23T00:59:14.816Z,1002.60
2023-04-23T01:00:14.740Z,1002.62
2023-04-23T01:01:14.756Z,1002.60
2023-04-23T01:02:14.779Z,1002.62
2023-04-23T01:03:14.849Z,1002.62
2023-04-23T01:04:14.840Z,1002.61
2023-04-23T01:05:14.688Z,1002.63
2023-04-23T01:06:14.663Z,1002.64
2023-04-23T01:07:14.672Z,1002.64
2023-04-23T01:08:14.689Z,1002.67
2023-04-23T01:09:14.656Z,1002.62
2023-04-23T01:10:14.627Z,1002.60
2023-04-23T01:11:14.633Z,1002.57
2023-04-23T01:12:14.612Z,1002.60
2023-04-23T01:13:14.649Z,1002.57
2023-04-23T01:14:14.633Z,1002.58
2023-04-23T01:15:14.577Z,1002.55
2023-04-23T01:16:14.557Z,1002.54
2023-04-23T01:17:14.544Z,1002.56
2023-04-23T01:18:14.526Z,1002.58
2023-04-23T01:19:14.558Z,1002.57
2023-04-23T01:20:14.521Z,1002.60
2023-04-23T01:21:14.491Z,1002.58
2023-04-23T01:22:14.509Z,1002.58
2023-04-23T01:23:14.480Z,1002.54
2023-04-23T01:24:14.507Z,1002.56
2023-04-23T01:25:14.470Z,1002.55
2023-04-23T01:26:14.430Z,1002.56
2023-04-23T01:27:14.428Z,1002.54
2023-04-23T01:28:14.470Z,1002.53
2023-04-23T01:29:14.425Z,1002.52
2023-04-23T01:30:14.398Z,1002.52
2023-04-23T01:31:14.409Z,1002.54
2023-04-23T01:32:14.404Z,1002.56
2023-04-23T01:33:14.410Z,1002.58
2023-04-23T01:34:14.355Z,1002.61
2023-04-23T01:35:14.369Z,1002.61
2023-04-23T01:36:14.335Z,1002.59
2023-04-23T01:37:14.324Z,1002.60
2023-04-23T01:38:14.312Z,1002.59
2023-04-23T01:39:14.337Z,1002.63
2023-04-23T01:40:14.317Z,1002.59
2023-04-23T01:41:14.286Z,1002.60
2023-04-23T01:42:14.250Z,1002.59
2023-04-23T01:43:14.275Z,1002.59
2023-04-23T01:44:14.260Z,1002.58
2023-04-23T01:45:14.233Z,1002.57
2023-04-23T01:46:14.277Z,1002.56
2023-04-23T01:47:14.220Z,1002.59
2023-04-23T01:48:14.236Z,1002.53
2023-04-23T01:49:14.197Z,1002.55
2023-04-23T01:50:14.159Z,1002.57
2023-04-23T01:51:14.154Z,1002.57
2023-04-23T01:52:14.158Z,1002.59
2023-04-23T01:53:14.147Z,1002.58
2023-04-23T01:54:14.143Z,1002.57
2023-04-23T01:55:14.123Z,1002.57
2023-04-23T01:56:14.111Z,1002.58
2023-04-23T01:57:14.089Z,1002.54
2023-04-23T01:58:14.092Z,1002.57
2023-04-23T01:59:14.091Z,1002.57
2023-04-23T02:00:14.072Z,1002.54
2023-04-23T02:01:14.123Z,1002.56
2023-04-23T02:02:14.156Z,1002.57
2023-04-23T02:03:14.239Z,1002.59
2023-04-23T02:04:14.201Z,1002.59
2023-04-23T02:05:14.000Z,1002.58
2023-04-23T02:06:13.986Z,1002.59
2023-04-23T02:07:13.982Z,1002.59
2023-04-23T02:08:13.968Z,1002.59
2023-04-23T02:09:13.972Z,1002.61
2023-04-23T02:10:13.931Z,1002.60
2023-04-23T02:11:13.953Z,1002.61
2023-04-23T02:12:13.942Z,1002.62
2023-04-23T02:13:13.908Z,1002.62
2023-04-23T02:14:13.912Z,1002.61
2023-04-23T02:15:13.905Z,1002.60
2023-04-23T02:16:13.923Z,1002.59
2023-04-23T02:17:13.862Z,1002.60
2023-04-23T02:18:13.853Z,1002.58
2023-04-23T02:19:15.918Z,1002.56
2023-04-23T02:20:13.826Z,1002.54
2023-04-23T02:21:13.835Z,1002.55
2023-04-23T02:22:13.819Z,1002.54
2023-04-23T02:23:13.796Z,1002.56
2023-04-23T02:24:13.798Z,1002.55
2023-04-23T02:25:13.779Z,1002.54
2023-04-23T02:26:13.757Z,1002.58
2023-04-23T02:27:13.757Z,1002.59
2023-04-23T02:28:13.773Z,1002.59
2023-04-23T02:29:13.749Z,1002.55
2023-04-23T02:30:13.707Z,1002.56
2023-04-23T02:31:13.720Z,1002.53
2023-04-23T02:32:13.701Z,1002.53
2023-04-23T02:33:13.702Z,1002.50
2023-04-23T02:34:13.708Z,1002.50
2023-04-23T02:35:13.666Z,1002.49
2023-04-23T02:36:13.660Z,1002.48
2023-04-23T02:37:13.634Z,1002.48
2023-04-23T02:38:13.640Z,1002.46
2023-04-23T02:39:13.648Z,1002.47
2023-04-23T02:40:13.624Z,1002.49
2023-04-23T02:41:13.598Z,1002.44
2023-04-23T02:42:13.572Z,1002.46
2023-04-23T02:43:13.574Z,1002.44
2023-04-23T02:44:13.594Z,1002.43
2023-04-23T02:45:13.567Z,1002.37
2023-04-23T02:46:13.565Z,1002.37
2023-04-23T02:47:13.531Z,1002.35
2023-04-23T02:48:13.514Z,1002.35
2023-04-23T02:49:13.522Z,1002.32
2023-04-23T02:50:13.501Z,1002.33
2023-04-23T02:51:13.492Z,1002.36
2023-04-23T02:52:13.462Z,1002.37
2023-04-23T02:53:13.463Z,1002.35
2023-04-23T02:54:13.463Z,1002.40
2023-04-23T02:55:13.436Z,1002.33
2023-04-23T02:56:13.455Z,1002.41
2023-04-23T02:57:13.413Z,1002.42
2023-04-23T02:58:13.398Z,1002.40
2023-04-23T02:59:13.420Z,1002.39
2023-04-23T03:00:13.397Z,1002.39
2023-04-23T03:01:13.451Z,1002.39
2023-04-23T03:02:13.396Z,1002.39
2023-04-23T03:03:13.414Z,1002.38
2023-04-23T03:04:13.434Z,1002.37
2023-04-23T03:05:13.338Z,1002.36
2023-04-23T03:06:13.312Z,1002.36
2023-04-23T03:07:13.314Z,1002.32
2023-04-23T03:08:13.290Z,1002.31
2023-04-23T03:09:13.328Z,1002.31
2023-04-23T03:10:13.258Z,1002.31
2023-04-23T03:11:13.253Z,1002.32
2023-04-23T03:12:13.233Z,1002.34
2023-04-23T03:13:13.230Z,1002.29
2023-04-23T03:14:13.240Z,1002.30
2023-04-23T03:15:13.216Z,1002.29
2023-04-23T03:16:13.258Z,1002.31
2023-04-23T03:17:13.173Z,1002.28
2023-04-23T03:18:13.171Z,1002.26
2023-04-23T03:19:13.164Z,1002.25
2023-04-23T03:20:13.147Z,1002.26
2023-04-23T03:21:13.142Z,1002.25
2023-04-23T03:22:13.112Z,1002.23
2023-04-23T03:23:13.114Z,1002.22
2023-04-23T03:24:13.112Z,1002.21
2023-04-23T03:25:13.108Z,1002.22
2023-04-23T03:26:13.065Z,1002.25
2023-04-23T03:27:13.754Z,1002.20
2023-04-23T03:28:13.055Z,1002.25
2023-04-23T03:29:13.082Z,1002.28
2023-04-23T03:30:13.042Z,1002.26
2023-04-23T03:31:13.065Z,1002.30
2023-04-23T03:32:13.032Z,1002.31
2023-04-23T03:33:13.020Z,1002.33
2023-04-23T03:34:13.065Z,1002.33
2023-04-23T03:35:12.976Z,1002.31
2023-04-23T03:36:12.974Z,1002.34
2023-04-23T03:37:12.961Z,1002.33
2023-04-23T03:38:12.929Z,1002.33
2023-04-23T03:39:12.959Z,1002.32
2023-04-23T03:40:12.914Z,1002.27
2023-04-23T03:41:12.905Z,1002.30
2023-04-23T03:42:12.896Z,1002.30
2023-04-23T03:43:12.867Z,1002.28
2023-04-23T03:44:12.899Z,1002.25
2023-04-23T03:45:12.876Z,1002.26
2023-04-23T03:46:12.883Z,1002.23
2023-04-23T03:47:12.838Z,1002.22
2023-04-23T03:48:12.858Z,1002.19
2023-04-23T03:49:12.826Z,1002.21
2023-04-23T03:50:12.884Z,1002.17
2023-04-23T03:51:12.776Z,1002.25
2023-04-23T03:52:12.777Z,1002.22
2023-04-23T03:53:12.809Z,1002.21
2023-04-23T03:54:12.759Z,1002.24
2023-04-23T03:55:12.749Z,1002.23
2023-04-23T03:56:12.748Z,1002.23
2023-04-23T03:57:12.729Z,1002.23
2023-04-23T03:58:12.708Z,1002.25
2023-04-23T03:59:12.704Z,1002.24
2023-04-23T04:00:12.734Z,1002.23
2023-04-23T04:01:12.670Z,1002.25
2023-04-23T04:02:12.768Z,1002.25
2023-04-23T04:03:12.799Z,1002.24
2023-04-23T04:04:13.017Z,1002.22
2023-04-23T04:05:12.758Z,1002.22
2023-04-23T04:06:12.625Z,1002.26
2023-04-23T04:07:12.613Z,1002.21
2023-04-23T04:08:12.605Z,1002.23
2023-04-23T04:09:12.624Z,1002.22
2023-04-23T04:10:12.585Z,1002.24
2023-04-23T04:11:12.569Z,1002.18
2023-04-23T04:12:12.566Z,1002.18
2023-04-23T04:13:12.570Z,1002.13
2023-04-23T04:14:12.555Z,1002.13
2023-04-23T04:15:12.510Z,1002.07
2023-04-23T04:16:12.528Z,1002.09
2023-04-23T04:17:12.519Z,1002.03
2023-04-23T04:18:12.496Z,1002.08
2023-04-23T04:19:12.498Z,1002.05
2023-04-23T04:20:12.495Z,1002.06
2023-04-23T04:21:12.447Z,1002.09
2023-04-23T04:22:12.452Z,1002.09
2023-04-23T04:23:12.427Z,1002.14
2023-04-23T04:24:12.430Z,1002.11
2023-04-23T04:25:12.442Z,1002.09
2023-04-23T04:26:12.386Z,1002.08
2023-04-23T04:27:12.374Z,1002.02
2023-04-23T04:28:12.388Z,1002.04
2023-04-23T04:29:12.364Z,1002.03
2023-04-23T04:30:12.345Z,1002.01
2023-04-23T04:31:12.397Z,1001.98
2023-04-23T04:32:12.319Z,1002.00
2023-04-23T04:33:12.305Z,1001.98
2023-04-23T04:34:12.295Z,1002.01
2023-04-23T04:35:12.291Z,1001.99
2023-04-23T04:36:12.341Z,1002.02
2023-04-23T04:37:12.281Z,1002.00
2023-04-23T04:38:12.256Z,1002.03
2023-04-23T04:39:12.235Z,1002.03
2023-04-23T04:40:12.236Z,1002.03
2023-04-23T04:41:12.276Z,1002.01
2023-04-23T04:42:12.202Z,1002.07
2023-04-23T04:43:12.228Z,1002.02
2023-04-23T04:44:12.184Z,1002.00
2023-04-23T04:45:12.186Z,1002.04
2023-04-23T04:46:12.170Z,1002.03
2023-04-23T04:47:12.172Z,1002.02
2023-04-23T04:48:12.150Z,1002.05
2023-04-23T04:49:12.138Z,1002.07
2023-04-23T04:50:12.128Z,1002.09
2023-04-23T04:51:12.106Z,1002.12
2023-04-23T04:52:12.144Z,1002.08
2023-04-23T04:53:12.073Z,1002.08
2023-04-23T04:54:12.075Z,1002.11
2023-04-23T04:55:12.063Z,1002.16
2023-04-23T04:56:12.052Z,1002.13
2023-04-23T04:57:12.084Z,1002.17
2023-04-23T04:58:12.029Z,1002.20
2023-04-23T04:59:12.012Z,1002.19
2023-04-23T05:00:12.012Z,1002.19
2023-04-23T05:01:12.097Z,1002.19
2023-04-23T05:02:12.070Z,1002.20
2023-04-23T05:03:14.120Z,1002.14
2023-04-23T05:04:12.087Z,1002.12
2023-04-23T05:05:11.941Z,1002.13
2023-04-23T05:06:11.931Z,1002.15
2023-04-23T05:07:11.948Z,1002.22
2023-04-23T05:08:11.944Z,1002.21
2023-04-23T05:09:11.919Z,1002.16
2023-04-23T05:10:11.918Z,1002.16
2023-04-23T05:11:11.912Z,1002.15
2023-04-23T05:12:11.877Z,1002.18
2023-04-23T05:13:11.881Z,1002.17
2023-04-23T05:14:11.850Z,1002.16
2023-04-23T05:15:11.840Z,1002.19
2023-04-23T05:16:11.853Z,1002.17
2023-04-23T05:17:11.821Z,1002.21
2023-04-23T05:18:11.805Z,1002.19
2023-04-23T05:19:11.817Z,1002.20
2023-04-23T05:20:11.797Z,1002.26
2023-04-23T05:21:11.760Z,1002.24
2023-04-23T05:22:11.801Z,1002.28
2023-04-23T05:23:11.747Z,1002.26
2023-04-23T05:24:11.798Z,1002.22
2023-04-23T05:25:11.712Z,1002.23
2023-04-23T05:26:11.723Z,1002.25
2023-04-23T05:27:11.703Z,1002.22
2023-04-23T05:28:11.683Z,1002.23
2023-04-23T05:29:11.666Z,1002.21
2023-04-23T05:30:11.671Z,1002.23
2023-04-23T05:31:11.641Z,1002.21
2023-04-23T05:32:11.718Z,1002.25
2023-04-23T05:33:11.632Z,1002.20
2023-04-23T05:34:11.614Z,1002.24
2023-04-23T05:35:11.609Z,1002.18
2023-04-23T05:36:11.609Z,1002.17
2023-04-23T05:37:11.586Z,1002.15
2023-04-23T05:38:11.562Z,1002.13
2023-04-23T05:39:11.561Z,1002.11
2023-04-23T05:40:11.577Z,1002.13
2023-04-23T05:41:11.562Z,1002.11
2023-04-23T05:42:11.540Z,1002.07
2023-04-23T05:43:11.516Z,1002.07
2023-04-23T05:44:11.504Z,1002.03
2023-04-23T05:45:11.511Z,1002.06
2023-04-23T05:46:11.511Z,1002.10
2023-04-23T05:47:11.497Z,1002.12
2023-04-23T05:48:11.482Z,1002.09
2023-04-23T05:49:11.444Z,1002.11
2023-04-23T05:50:11.438Z,1002.14
2023-04-23T05:51:11.412Z,1002.16
2023-04-23T05:52:11.435Z,1002.12
2023-04-23T05:53:11.443Z,1002.15
2023-04-23T05:54:11.387Z,1002.13
2023-04-23T05:55:11.482Z,1002.15
2023-04-23T05:56:11.388Z,1002.13
2023-04-23T05:57:11.350Z,1002.17
2023-04-23T05:58:11.342Z,1002.18
2023-04-23T05:59:11.314Z,1002.13
2023-04-23T06:00:11.327Z,1002.14
2023-04-23T06:01:11.288Z,1002.17
2023-04-23T06:02:11.456Z,1002.16
2023-04-23T06:03:11.468Z,1002.16
2023-04-23T06:04:11.426Z,1002.11
2023-04-23T06:05:11.725Z,1002.13
2023-04-23T06:06:11.235Z,1002.14
2023-04-23T06:07:11.249Z,1002.14
2023-04-23T06:08:11.227Z,1002.15
2023-04-23T06:09:11.204Z,1002.15
2023-04-23T06:10:11.216Z,1002.10
2023-04-23T06:11:11.175Z,1002.09
2023-04-23T06:12:11.207Z,1002.10
2023-04-23T06:13:11.296Z,1002.11
2023-04-23T06:14:11.182Z,1002.13
2023-04-23T06:15:11.196Z,1002.16
2023-04-23T06:16:11.233Z,1002.20
2023-04-23T06:17:11.121Z,1002.18
2023-04-23T06:18:11.157Z,1002.15
2023-04-23T06:19:11.128Z,1002.18
2023-04-23T06:20:11.101Z,1002.15
2023-04-23T06:21:11.069Z,1002.15
2023-04-23T06:22:11.068Z,1002.12
2023-04-23T06:23:11.077Z,1002.14
2023-04-23T06:24:11.099Z,1002.17
2023-04-23T06:25:11.046Z,1002.11
2023-04-23T06:26:11.015Z,1002.08
2023-04-23T06:27:11.010Z,1002.04
2023-04-23T06:28:11.056Z,1002.02
2023-04-23T06:29:11.072Z,1001.98
2023-04-23T06:30:10.958Z,1002.00
2023-04-23T06:31:10.986Z,1001.96
2023-04-23T06:32:10.951Z,1001.97
2023-04-23T06:33:10.944Z,1001.99
2023-04-23T06:34:10.946Z,1001.98
2023-04-23T06:35:10.908Z,1002.01
2023-04-23T06:36:10.907Z,1002.00
2023-04-23T06:37:11.038Z,1002.00
2023-04-23T06:38:11.039Z,1002.05
2023-04-23T06:39:10.894Z,1002.05
2023-04-23T06:40:10.846Z,1002.08
2023-04-23T06:41:10.830Z,1002.10
2023-04-23T06:42:10.823Z,1002.06
2023-04-23T06:43:10.822Z,1002.07
2023-04-23T06:44:10.849Z,1002.11
2023-04-23T06:45:10.789Z,1002.11
2023-04-23T06:46:10.824Z,1002.08
2023-04-23T06:47:10.809Z,1002.11
2023-04-23T06:48:10.790Z,1002.06
2023-04-23T06:49:10.750Z,1002.06
2023-04-23T06:50:10.756Z,1002.09
2023-04-23T06:51:10.977Z,1002.08
2023-04-23T06:52:10.724Z,1002.08
2023-04-23T06:53:10.712Z,1002.08
2023-04-23T06:54:10.697Z,1002.03
2023-04-23T06:55:10.681Z,1002.05
2023-04-23T06:56:10.690Z,1002.07
2023-04-23T06:57:10.667Z,1002.06
2023-04-23T06:58:10.685Z,1002.02
2023-04-23T06:59:10.633Z,1002.00
2023-04-23T07:00:10.656Z,1002.00
2023-04-23T07:01:10.631Z,1002.00
2023-04-23T07:02:10.656Z,1001.93
2023-04-23T07:03:10.704Z,1001.88
2023-04-23T07:04:10.780Z,1001.91
2023-04-23T07:05:10.571Z,1001.89
2023-04-23T07:06:10.570Z,1001.88
2023-04-23T07:07:10.559Z,1001.93
2023-04-23T07:08:10.560Z,1001.89
2023-04-23T07:09:10.562Z,1001.92
2023-04-23T07:10:10.523Z,1001.86
2023-04-23T07:11:10.544Z,1001.90
2023-04-23T07:12:10.508Z,1001.88
2023-04-23T07:13:10.492Z,1001.87
2023-04-23T07:14:10.485Z,1001.90
2023-04-23T07:15:10.516Z,1001.87
2023-04-23T07:16:10.584Z,1001.82
2023-04-23T07:17:10.436Z,1001.81
2023-04-23T07:18:10.442Z,1001.81
2023-04-23T07:19:10.450Z,1001.84
2023-04-23T07:20:10.426Z,1001.88
2023-04-23T07:21:10.394Z,1001.88
2023-04-23T07:22:10.387Z,1001.86
2023-04-23T07:23:10.373Z,1001.85
2023-04-23T07:24:10.597Z,1001.88
2023-04-23T07:25:10.348Z,1001.86
2023-04-23T07:26:10.354Z,1001.86
2023-04-23T07:27:10.329Z,1001.83
2023-04-23T07:28:10.383Z,1001.79
2023-04-23T07:29:10.341Z,1001.83
2023-04-23T07:30:10.478Z,1001.78
2023-04-23T07:31:10.314Z,1001.73
2023-04-23T07:32:10.376Z,1001.76
2023-04-23T07:33:10.286Z,1001.82
2023-04-23T07:34:10.418Z,1001.79
2023-04-23T07:35:10.869Z,1001.71
2023-04-23T07:36:10.317Z,1001.70
2023-04-23T07:37:10.283Z,1001.70
2023-04-23T07:38:10.328Z,1001.70
2023-04-23T07:39:10.332Z,1001.71
2023-04-23T07:40:10.232Z,1001.68
2023-04-23T07:41:10.182Z,1001.72
2023-04-23T07:42:10.181Z,1001.70
2023-04-23T07:43:10.168Z,1001.67
2023-04-23T07:44:10.840Z,1001.63
2023-04-23T07:45:10.196Z,1001.67
2023-04-23T07:46:10.163Z,1001.63
2023-04-23T07:47:10.118Z,1001.58
2023-04-23T07:48:10.116Z,1001.59
2023-04-23T07:49:10.106Z,1001.58
2023-04-23T07:50:10.077Z,1001.57
2023-04-23T07:51:10.059Z,1001.60
2023-04-23T07:52:10.067Z,1001.57
2023-04-23T07:53:10.050Z,1001.59
2023-04-23T07:54:10.115Z,1001.57
2023-04-23T07:55:10.143Z,1001.57
2023-04-23T07:56:10.025Z,1001.61
2023-04-23T07:57:10.003Z,1001.56
2023-04-23T07:58:09.994Z,1001.60
2023-04-23T07:59:10.007Z,1001.60
2023-04-23T08:00:09.975Z,1001.65
2023-04-23T08:01:09.971Z,1001.57
2023-04-23T08:02:10.095Z,1001.59
2023-04-23T08:03:10.084Z,1001.59
2023-04-23T08:04:10.233Z,1001.61
2023-04-23T08:05:10.185Z,1001.68
2023-04-23T08:06:10.034Z,1001.62
2023-04-23T08:07:09.894Z,1001.62
2023-04-23T08:08:09.882Z,1001.61
2023-04-23T08:09:09.865Z,1001.55
2023-04-23T08:10:09.870Z,1001.59
2023-04-23T08:11:09.841Z,1001.57
2023-04-23T08:12:09.848Z,1001.56
2023-04-23T08:13:09.940Z,1001.55
2023-04-23T08:14:09.808Z,1001.59
2023-04-23T08:15:09.814Z,1001.60
2023-04-23T08:16:09.819Z,1001.60
2023-04-23T08:17:09.761Z,1001.59
2023-04-23T08:18:09.759Z,1001.60
2023-04-23T08:19:09.758Z,1001.59
2023-04-23T08:20:09.748Z,1001.57
2023-04-23T08:21:09.712Z,1001.50
2023-04-23T08:22:09.732Z,1001.48
2023-04-23T08:23:09.702Z,1001.54
2023-04-23T08:24:09.717Z,1001.54
2023-04-23T08:25:09.704Z,1001.47
2023-04-23T08:26:09.652Z,1001.52
2023-04-23T08:27:09.664Z,1001.54
2023-04-23T08:28:09.691Z,1001.50
2023-04-23T08:29:11.499Z,1001.52
2023-04-23T08:30:09.648Z,1001.49
2023-04-23T08:31:22.864Z,1001.53
2023-04-23T08:32:10.612Z,1001.48
2023-04-23T08:33:09.643Z,1001.48
2023-04-23T08:34:09.610Z,1001.54
2023-04-23T08:35:09.580Z,1001.52
2023-04-23T08:36:09.563Z,1001.54
2023-04-23T08:37:16.540Z,1001.54
2023-04-23T08:38:10.530Z,1001.53
2023-04-23T08:39:09.534Z,1001.54
2023-04-23T08:40:09.524Z,1001.45
2023-04-23T08:41:09.496Z,1001.48
2023-04-23T08:42:09.466Z,1001.42
2023-04-23T08:43:09.482Z,1001.45
2023-04-23T08:44:09.461Z,1001.44
2023-04-23T08:45:09.458Z,1001.46
2023-04-23T08:46:09.474Z,1001.48
2023-04-23T08:47:09.426Z,1001.50
2023-04-23T08:48:09.429Z,1001.43
2023-04-23T08:49:09.401Z,1001.43
2023-04-23T08:50:09.421Z,1001.45
2023-04-23T08:51:09.399Z,1001.37
2023-04-23T08:52:09.424Z,1001.35
2023-04-23T08:53:09.382Z,1001.35
2023-04-23T08:54:09.367Z,1001.34
2023-04-23T08:55:09.344Z,1001.32
2023-04-23T08:56:09.328Z,1001.27
2023-04-23T08:57:09.325Z,1001.40
2023-04-23T08:58:09.297Z,1001.33
2023-04-23T08:59:09.307Z,1001.37
2023-04-23T09:00:09.292Z,1001.32
2023-04-23T09:01:09.310Z,1001.30
2023-04-23T09:02:09.362Z,1001.27
2023-04-23T09:03:09.345Z,1001.30
2023-04-23T09:04:09.232Z,1001.29
2023-04-23T09:05:09.249Z,1001.31
2023-04-23T09:06:09.193Z,1001.33
2023-04-23T09:07:09.200Z,1001.37
2023-04-23T09:08:09.210Z,1001.37
2023-04-23T09:09:09.172Z,1001.35
2023-04-23T09:10:09.181Z,1001.22
2023-04-23T09:11:09.156Z,1001.32
2023-04-23T09:12:09.142Z,1001.23
2023-04-23T09:13:09.120Z,1001.21
2023-04-23T09:14:09.116Z,1001.13
2023-04-23T09:15:09.139Z,1001.15
2023-04-23T09:16:09.118Z,1001.17
2023-04-23T09:17:09.077Z,1001.09
2023-04-23T09:18:09.077Z,1001.11
2023-04-23T09:19:09.049Z,1001.06
2023-04-23T09:20:09.064Z,1001.14
2023-04-23T09:21:09.045Z,1001.14
2023-04-23T09:22:09.019Z,1001.05
2023-04-23T09:23:09.029Z,1001.10
2023-04-23T09:24:09.011Z,1001.06
2023-04-23T09:25:08.996Z,1001.00
2023-04-23T09:26:08.980Z,1001.01
2023-04-23T09:27:08.976Z,1001.02
2023-04-23T09:28:08.998Z,1000.95
2023-04-23T09:29:08.951Z,1001.08
2023-04-23T09:30:08.919Z,1000.96
2023-04-23T09:31:08.914Z,1001.04
2023-04-23T09:32:08.942Z,1001.00
2023-04-23T09:33:08.948Z,1000.87
2023-04-23T09:34:08.892Z,1000.88
2023-04-23T09:35:08.890Z,1000.86
2023-04-23T09:36:08.891Z,1000.86
2023-04-23T09:37:08.867Z,1000.92
2023-04-23T09:38:08.886Z,1000.87
2023-04-23T09:39:08.841Z,1000.84
2023-04-23T09:40:08.858Z,1000.81
2023-04-23T09:41:08.809Z,1000.78
2023-04-23T09:42:08.792Z,1000.83
2023-04-23T09:43:08.782Z,1000.88
2023-04-23T09:44:08.811Z,1000.85
2023-04-23T09:45:08.756Z,1000.83
2023-04-23T09:46:08.800Z,1000.85
2023-04-23T09:47:08.736Z,1000.87
2023-04-23T09:48:08.760Z,1000.80
2023-04-23T09:49:08.745Z,1000.80
2023-04-23T09:50:08.722Z,1000.83
2023-04-23T09:51:08.708Z,1000.88
2023-04-23T09:52:08.689Z,1000.71
2023-04-23T09:53:08.668Z,1000.71
2023-04-23T09:54:08.724Z,1000.71
2023-04-23T09:55:08.690Z,1000.62
2023-04-23T09:56:08.667Z,1000.83
2023-04-23T09:57:08.640Z,1000.69
2023-04-23T09:58:08.642Z,1000.67
2023-04-23T09:59:08.598Z,1000.75
2023-04-23T10:00:14.501Z,1000.62
2023-04-23T10:01:09.689Z,1000.61
2023-04-23T10:02:08.684Z,1000.67
2023-04-23T10:03:08.875Z,1000.76
2023-04-23T10:04:08.658Z,1000.70
2023-04-23T10:05:21.724Z,1000.74
2023-04-23T10:06:17.251Z,1000.71
2023-04-23T10:08:09.585Z,1000.64
2023-04-23T10:09:08.519Z,1000.63
2023-04-23T10:10:08.468Z,1000.63
2023-04-23T10:11:20.453Z,1000.73
2023-04-23T10:12:20.801Z,1000.68
2023-04-23T10:13:09.438Z,1000.64
2023-04-23T10:14:08.458Z,1000.61
2023-04-23T10:15:08.428Z,1000.63
2023-04-23T10:16:21.297Z,1000.62
2023-04-23T10:17:10.521Z,1000.69
2023-04-23T10:18:08.385Z,1000.69
2023-04-23T10:19:08.390Z,1000.66
2023-04-23T10:20:08.355Z,1000.70
2023-04-23T10:21:08.383Z,1000.70
2023-04-23T10:22:18.649Z,1000.63
2023-04-23T10:23:09.339Z,1000.63
2023-04-23T10:24:08.346Z,1000.65
2023-04-23T10:25:08.347Z,1000.74
2023-04-23T10:26:08.329Z,1000.68
2023-04-23T10:27:21.810Z,1000.63
2023-04-23T10:28:09.282Z,1000.76
2023-04-23T10:29:08.273Z,1000.65
2023-04-23T10:30:08.263Z,1000.63
2023-04-23T10:31:08.282Z,1000.81
2023-04-23T10:32:08.249Z,1000.63
2023-04-23T10:33:15.714Z,1000.68
2023-04-23T10:34:09.224Z,1000.70
2023-04-23T10:35:08.248Z,1000.63
2023-04-23T10:36:08.198Z,1000.66
2023-04-23T10:37:08.373Z,1000.56
2023-04-23T10:38:08.153Z,1000.71
2023-04-23T10:39:09.339Z,1000.68
2023-04-23T10:40:08.147Z,1000.65
2023-04-23T10:41:08.151Z,1000.72
2023-04-23T10:42:08.141Z,1000.69
2023-04-23T10:43:08.113Z,1000.70
2023-04-23T10:44:08.125Z,1000.58
2023-04-23T10:45:20.245Z,1000.59
2023-04-23T10:46:09.098Z,1000.63
2023-04-23T10:47:08.073Z,1000.47
2023-04-23T10:48:08.070Z,1000.44
2023-04-23T10:49:08.032Z,1000.47
2023-04-23T10:50:08.052Z,1000.48
2023-04-23T10:51:31.867Z,1000.45
2023-04-23T10:52:19.325Z,1000.49
2023-04-23T10:53:08.992Z,1000.52
2023-04-23T10:54:07.997Z,1000.50
2023-04-23T10:55:08.001Z,1000.45
2023-04-23T10:56:08.007Z,1000.46
2023-04-23T10:57:07.959Z,1000.44
2023-04-23T10:58:08.386Z,1000.43
2023-04-23T10:59:07.922Z,1000.40
2023-04-23T11:00:07.956Z,1000.46
2023-04-23T11:01:07.909Z,1000.47
2023-04-23T11:02:07.949Z,1000.35
2023-04-23T11:03:08.006Z,1000.38
2023-04-23T11:04:08.050Z,1000.34
2023-04-23T11:05:07.939Z,1000.30
2023-04-23T11:06:07.894Z,1000.45
2023-04-23T11:07:07.830Z,1000.34
2023-04-23T11:08:18.728Z,1000.31
2023-04-23T11:09:08.839Z,1000.34
2023-04-23T11:10:07.794Z,1000.26
2023-04-23T11:11:07.811Z,1000.25
2023-04-23T11:12:07.780Z,1000.32
2023-04-23T11:13:07.782Z,1000.23
2023-04-23T11:14:07.746Z,1000.27
2023-04-23T11:15:07.749Z,1000.21
2023-04-23T11:16:07.797Z,1000.16
2023-04-23T11:17:07.739Z,1000.17
2023-04-23T11:18:07.738Z,1000.15
2023-04-23T11:19:07.736Z,1000.13
2023-04-23T11:20:07.711Z,1000.05
2023-04-23T11:21:07.719Z,1000.14
2023-04-23T11:22:07.660Z,1000.06
2023-04-23T11:23:07.682Z,1000.02
2023-04-23T11:24:07.683Z,1000.05
2023-04-23T11:25:07.641Z,1000.02
2023-04-23T11:26:07.642Z,1000.01
2023-04-23T11:27:07.633Z,1000.17
2023-04-23T11:28:07.586Z,1000.09
2023-04-23T11:29:07.595Z,1000.03
2023-04-23T11:30:07.579Z,1000.03
2023-04-23T11:31:07.595Z,1000.06
2023-04-23T11:32:07.606Z,1000.03
2023-04-23T11:33:07.651Z,999.91
2023-04-23T11:34:07.545Z,1000.08
2023-04-23T11:35:07.512Z,1000.04
2023-04-23T11:36:07.557Z,999.96
2023-04-23T11:37:07.490Z,999.98
2023-04-23T11:38:07.494Z,999.91
2023-04-23T11:39:07.475Z,999.89
2023-04-23T11:40:07.460Z,999.94
2023-04-23T11:41:07.464Z,999.85
2023-04-23T11:42:07.456Z,999.93
2023-04-23T11:43:07.431Z,999.92
2023-04-23T11:44:07.421Z,999.99
2023-04-23T11:45:07.425Z,999.85
2023-04-23T11:46:07.468Z,999.86
2023-04-23T11:47:07.412Z,999.72
2023-04-23T11:48:07.465Z,999.81
2023-04-23T11:49:07.387Z,999.85
2023-04-23T11:50:07.362Z,999.79
2023-04-23T11:51:07.371Z,999.82
2023-04-23T11:52:07.350Z,999.69
2023-04-23T11:53:07.354Z,999.87
2023-04-23T11:54:07.297Z,999.80
2023-04-23T11:55:07.304Z,999.78
2023-04-23T11:56:07.293Z,999.68
2023-04-23T11:57:07.273Z,999.70
2023-04-23T11:58:07.263Z,999.70
2023-04-23T11:59:07.276Z,999.77
2023-04-23T12:00:07.227Z,999.77
2023-04-23T12:01:07.245Z,999.79
2023-04-23T12:02:07.300Z,999.71
2023-04-23T12:03:07.396Z,999.62
2023-04-23T12:04:07.342Z,999.61
2023-04-23T12:05:07.190Z,999.73
2023-04-23T12:06:07.173Z,999.61
2023-04-23T12:07:19.387Z,999.62